createdAt,value
2022-08-11T00:13:50.511Z,20.61
2022-08-11T00:16:23.229Z,20.67
2022-08-11T00:18:59.054Z,20.66
2022-08-11T00:22:02.856Z,20.23
2022-08-11T00:24:23.702Z,19.99
2022-08-11T00:26:55.206Z,19.77
2022-08-11T00:29:24.797Z,19.28
2022-08-11T00:31:55.312Z,19.46
2022-08-11T00:34:26.749Z,19.60
2022-08-11T00:36:57.224Z,19.89
2022-08-11T00:39:28.738Z,20.02
2022-08-11T00:42:08.058Z,19.78
2022-08-11T00:44:57.804Z,19.98
2022-08-11T00:47:36.204Z,20.00
2022-08-11T00:50:10.279Z,20.22
2022-08-11T00:52:50.072Z,20.25
2022-08-11T00:55:39.479Z,20.24
2022-08-11T00:58:44.691Z,20.18
2022-08-11T01:01:29.993Z,20.21
2022-08-11T01:04:30.660Z,20.22
2022-08-11T01:08:01.358Z,20.15
2022-08-11T01:11:00.826Z,20.03
2022-08-11T01:13:46.916Z,19.82
2022-08-11T01:16:38.720Z,19.84
2022-08-11T01:20:44.888Z,19.84
2022-08-11T01:23:17.681Z,19.80
2022-08-11T01:26:28.157Z,19.63
2022-08-11T01:29:34.500Z,19.61
2022-08-11T01:32:17.811Z,19.67
2022-08-11T01:35:24.526Z,19.59
2022-08-11T01:38:28.398Z,19.64
2022-08-11T01:41:25.586Z,19.60
2022-08-11T01:44:36.644Z,19.22
2022-08-11T01:47:34.669Z,18.62
2022-08-11T01:50:11.300Z,17.99
2022-08-11T01:52:50.110Z,17.71
2022-08-11T01:55:24.349Z,17.91
2022-08-11T01:57:55.984Z,18.61
2022-08-11T02:00:29.450Z,18.89
2022-08-11T02:03:06.899Z,18.83
2022-08-11T02:05:51.024Z,18.86
2022-08-11T02:08:35.395Z,18.90
2022-08-11T02:11:35.499Z,18.77
2022-08-11T02:14:21.057Z,18.71
2022-08-11T02:17:00.705Z,18.85
2022-08-11T02:19:56.545Z,18.96
2022-08-11T02:22:49.737Z,19.12
2022-08-11T02:25:25.591Z,19.05
2022-08-11T02:28:00.993Z,18.91
2022-08-11T02:30:34.496Z,19.08
2022-08-11T02:33:25.188Z,19.15
2022-08-11T02:36:00.963Z,18.80
2022-08-11T02:38:33.934Z,18.66
2022-08-11T02:41:25.651Z,18.28
2022-08-11T02:44:12.561Z,18.37
2022-08-11T02:46:52.955Z,18.48
2022-08-11T02:50:02.583Z,18.23
2022-08-11T02:52:40.857Z,18.24
2022-08-11T02:55:50.978Z,18.39
2022-08-11T02:58:15.880Z,18.62
2022-08-11T03:00:49.283Z,18.65
2022-08-11T03:03:22.467Z,18.45
2022-08-11T03:05:56.129Z,18.28
2022-08-11T03:08:51.423Z,18.31
2022-08-11T03:11:45.575Z,18.41
2022-08-11T03:14:36.265Z,17.86
2022-08-11T03:17:11.728Z,17.98
2022-08-11T03:19:48.413Z,17.85
2022-08-11T03:22:23.299Z,17.85
2022-08-11T03:24:59.101Z,17.73
2022-08-11T03:27:54.542Z,17.89
2022-08-11T03:30:28.901Z,18.09
2022-08-11T03:33:27.193Z,18.22
2022-08-11T03:36:09.678Z,18.24
2022-08-11T03:38:48.520Z,17.82
2022-08-11T03:42:03.579Z,17.83
2022-08-11T03:44:39.466Z,18.04
2022-08-11T03:47:23.945Z,18.07
2022-08-11T03:50:02.468Z,18.21
2022-08-11T03:52:50.047Z,18.25
2022-08-11T03:55:28.508Z,18.28
2022-08-11T03:58:39.596Z,18.23
2022-08-11T04:01:35.455Z,18.21
2022-08-11T04:04:51.452Z,18.20
2022-08-11T04:07:44.561Z,18.08
2022-08-11T04:10:46.294Z,18.18
2022-08-11T04:13:38.999Z,18.04
2022-08-11T04:16:44.572Z,17.41
2022-08-11T04:20:02.105Z,17.48
2022-08-11T04:23:03.302Z,17.64
2022-08-11T04:25:58.483Z,17.82
2022-08-11T04:28:53.561Z,17.84
2022-08-11T04:31:51.830Z,17.72
2022-08-11T04:34:38.179Z,17.47
2022-08-11T04:37:35.431Z,17.54
2022-08-11T04:40:14.083Z,17.62
2022-08-11T04:43:24.329Z,17.71
2022-08-11T04:46:07.684Z,17.82
2022-08-11T04:49:36.089Z,17.75
2022-08-11T04:52:42.164Z,17.50
2022-08-11T04:55:47.995Z,17.32
2022-08-11T04:58:40.620Z,17.36
2022-08-11T05:01:38.798Z,17.52
2022-08-11T05:04:57.869Z,17.47
2022-08-11T05:08:10.756Z,17.68
2022-08-11T05:11:05.046Z,17.57
2022-08-11T05:13:52.595Z,17.67
2022-08-11T05:16:42.888Z,17.59
2022-08-11T05:19:34.446Z,17.52
2022-08-11T05:22:19.804Z,17.51
2022-08-11T05:25:08.872Z,17.79
2022-08-11T05:27:59.232Z,17.74
2022-08-11T05:30:47.062Z,17.78
2022-08-11T05:33:39.104Z,17.79
2022-08-11T05:36:18.510Z,17.77
2022-08-11T05:39:11.878Z,17.79
2022-08-11T05:41:58.011Z,17.99
2022-08-11T05:44:45.953Z,17.99
2022-08-11T05:47:41.294Z,18.13
2022-08-11T05:50:32.798Z,18.19
2022-08-11T05:53:20.317Z,18.28
2022-08-11T05:56:06.287Z,18.45
2022-08-11T05:58:41.375Z,18.51
2022-08-11T06:01:12.374Z,18.61
2022-08-11T06:03:58.041Z,18.77
2022-08-11T06:06:27.166Z,18.92
2022-08-11T06:08:56.986Z,19.05
2022-08-11T06:11:44.424Z,19.13
2022-08-11T06:14:13.829Z,19.24
2022-08-11T06:16:44.330Z,19.23
2022-08-11T06:19:12.750Z,19.24
2022-08-11T06:21:46.522Z,19.48
2022-08-11T06:24:15.333Z,19.61
2022-08-11T06:27:11.239Z,19.82
2022-08-11T06:29:52.560Z,19.83
2022-08-11T06:32:28.737Z,19.94
2022-08-11T06:35:07.447Z,19.89
2022-08-11T06:37:46.902Z,19.96
2022-08-11T06:40:25.252Z,20.22
2022-08-11T06:42:58.819Z,20.61
2022-08-11T06:45:32.385Z,20.78
2022-08-11T06:48:03.179Z,20.76
2022-08-11T06:50:49.167Z,20.97
2022-08-11T06:53:20.370Z,21.16
2022-08-11T06:56:07.011Z,21.15
2022-08-11T06:58:54.966Z,21.18
2022-08-11T07:01:34.715Z,21.44
2022-08-11T07:04:07.902Z,21.72
2022-08-11T07:06:51.103Z,21.86
2022-08-11T07:09:56.418Z,21.76
2022-08-11T07:12:56.604Z,21.62
2022-08-11T07:16:12.673Z,21.86
2022-08-11T07:18:56.747Z,22.08
2022-08-11T07:22:01.535Z,21.93
2022-08-11T07:25:01.402Z,22.22
2022-08-11T07:27:53.909Z,22.20
2022-08-11T07:30:22.190Z,22.45
2022-08-11T07:32:52.473Z,22.80
2022-08-11T07:35:24.407Z,22.76
2022-08-11T07:38:01.647Z,22.84
2022-08-11T07:40:31.794Z,22.92
2022-08-11T07:43:01.123Z,22.89
2022-08-11T07:45:47.316Z,23.08
2022-08-11T07:48:34.462Z,23.28
2022-08-11T07:51:20.446Z,23.56
2022-08-11T07:54:03.208Z,23.79
2022-08-11T07:56:54.709Z,23.78
2022-08-11T08:00:00.006Z,24.00
2022-08-11T08:02:47.584Z,24.19
2022-08-11T08:05:33.455Z,24.31
2022-08-11T08:08:18.918Z,24.32
2022-08-11T08:11:05.915Z,24.53
2022-08-11T08:13:52.133Z,24.55
2022-08-11T08:16:38.317Z,24.71
2022-08-11T08:19:09.025Z,24.34
2022-08-11T08:21:37.146Z,24.68
2022-08-11T08:24:05.801Z,24.69
2022-08-11T08:26:53.066Z,24.97
2022-08-11T08:29:39.136Z,25.07
2022-08-11T08:32:08.848Z,25.14
2022-08-11T08:34:37.321Z,25.41
2022-08-11T08:37:45.052Z,25.62
2022-08-11T08:39:55.413Z,25.40
2022-08-11T08:42:28.055Z,25.18
2022-08-11T08:45:00.218Z,25.53
2022-08-11T08:47:41.933Z,25.61
2022-08-11T08:50:16.343Z,25.92
2022-08-11T08:52:51.600Z,26.05
2022-08-11T08:55:22.070Z,26.26
2022-08-11T08:57:55.105Z,26.40
2022-08-11T09:00:23.952Z,26.24
2022-08-11T09:02:55.400Z,26.53
2022-08-11T09:05:25.989Z,26.72
2022-08-11T09:07:58.126Z,26.55
2022-08-11T09:10:37.862Z,26.87
2022-08-11T09:13:10.189Z,26.99
2022-08-11T09:15:38.731Z,26.98
2022-08-11T09:18:09.344Z,27.24
2022-08-11T09:20:38.888Z,26.91
2022-08-11T09:24:07.808Z,27.19
2022-08-11T09:26:32.382Z,27.47
2022-08-11T09:29:02.135Z,27.36
2022-08-11T09:31:38.681Z,27.49
2022-08-11T09:34:16.184Z,27.55
2022-08-11T09:37:02.521Z,27.54
2022-08-11T09:39:55.053Z,27.54
2022-08-11T09:42:47.013Z,27.65
2022-08-11T09:45:16.846Z,27.68
2022-08-11T09:47:45.413Z,27.99
2022-08-11T09:50:17.213Z,27.95
2022-08-11T09:53:09.931Z,27.78
2022-08-11T09:55:36.857Z,28.21
2022-08-11T09:58:41.932Z,28.27
2022-08-11T10:01:08.036Z,28.27
2022-08-11T10:03:40.420Z,28.47
2022-08-11T10:06:33.212Z,28.54
2022-08-11T10:09:05.461Z,28.68
2022-08-11T10:11:35.370Z,28.45
2022-08-11T10:14:33.971Z,28.70
2022-08-11T10:17:07.576Z,28.97
2022-08-11T10:19:37.534Z,28.87
2022-08-11T10:22:32.980Z,28.90
2022-08-11T10:25:20.295Z,29.36
2022-08-11T10:28:28.237Z,29.04
2022-08-11T10:30:57.145Z,29.52
2022-08-11T10:33:57.462Z,29.57
2022-08-11T10:36:43.091Z,29.96
2022-08-11T10:39:18.164Z,29.99
2022-08-11T10:42:08.475Z,29.85
2022-08-11T10:44:44.677Z,30.14
2022-08-11T10:47:31.870Z,30.21
2022-08-11T10:50:24.760Z,30.31
2022-08-11T10:53:10.486Z,30.34
2022-08-11T10:55:58.636Z,30.35
2022-08-11T10:58:44.744Z,30.34
2022-08-11T11:01:13.270Z,30.66
2022-08-11T11:03:41.816Z,30.66
2022-08-11T11:06:29.136Z,30.36
2022-08-11T11:09:05.365Z,30.54
2022-08-11T11:11:55.581Z,30.89
2022-08-11T11:14:46.703Z,31.02
2022-08-11T11:17:42.349Z,31.22
2022-08-11T11:20:34.567Z,31.26
2022-08-11T11:23:10.736Z,31.45
2022-08-11T11:26:06.784Z,31.16
2022-08-11T11:28:47.194Z,31.27
2022-08-11T11:31:24.994Z,31.47
2022-08-11T11:34:12.617Z,31.84
2022-08-11T11:36:47.046Z,31.49
2022-08-11T11:39:19.358Z,31.99
2022-08-11T11:41:47.473Z,31.88
2022-08-11T11:44:16.305Z,31.91
2022-08-11T11:46:46.561Z,31.85
2022-08-11T11:49:17.116Z,31.98
2022-08-11T11:51:46.263Z,32.06
2022-08-11T11:54:23.899Z,31.70
2022-08-11T11:56:53.415Z,32.40
2022-08-11T11:59:39.434Z,32.14
2022-08-11T12:02:11.908Z,32.37
2022-08-11T12:04:43.104Z,32.21
2022-08-11T12:07:28.944Z,32.00
2022-08-11T12:09:59.334Z,32.74
2022-08-11T12:12:45.279Z,32.41
2022-08-11T12:15:13.595Z,32.98
2022-08-11T12:17:42.015Z,32.87
2022-08-11T12:20:30.816Z,33.25
2022-08-11T12:23:16.604Z,33.02
2022-08-11T12:26:25.804Z,32.98
2022-08-11T12:28:52.384Z,33.15
2022-08-11T12:31:26.088Z,33.24
2022-08-11T12:33:56.166Z,33.39
2022-08-11T12:36:24.473Z,32.90
2022-08-11T12:38:53.471Z,33.65
2022-08-11T12:41:41.765Z,33.90
2022-08-11T12:44:38.169Z,33.70
2022-08-11T12:47:10.295Z,34.06
2022-08-11T12:50:22.750Z,34.17
2022-08-11T12:52:58.676Z,33.97
2022-08-11T12:56:03.335Z,34.28
2022-08-11T12:58:33.484Z,33.93
2022-08-11T13:01:19.365Z,34.35
2022-08-11T13:04:06.334Z,33.88
2022-08-11T13:06:34.803Z,33.88
2022-08-11T13:09:04.298Z,33.90
2022-08-11T13:12:00.339Z,34.40
2022-08-11T13:14:32.897Z,34.44
2022-08-11T13:17:19.102Z,34.81
2022-08-11T13:19:49.688Z,34.74
2022-08-11T13:22:19.546Z,34.94
2022-08-11T13:24:48.246Z,34.37
2022-08-11T13:27:18.485Z,34.91
2022-08-11T13:30:14.916Z,34.72
2022-08-11T13:32:45.346Z,35.27
2022-08-11T13:35:17.237Z,35.53
2022-08-11T13:38:27.455Z,35.15
2022-08-11T13:40:54.781Z,35.30
2022-08-11T13:43:24.720Z,35.06
2022-08-11T13:46:19.712Z,35.34
2022-08-11T13:48:50.664Z,35.57
2022-08-11T13:51:34.854Z,35.28
2022-08-11T13:54:05.758Z,35.86
2022-08-11T13:56:34.969Z,35.41
2022-08-11T13:59:03.846Z,35.50
2022-08-11T14:02:21.286Z,35.91
2022-08-11T14:04:32.411Z,35.38
2022-08-11T14:07:03.715Z,35.88
2022-08-11T14:09:44.420Z,35.85
2022-08-11T14:12:36.083Z,36.14
2022-08-11T14:15:08.989Z,36.09
2022-08-11T14:17:49.055Z,35.94
2022-08-11T14:20:39.012Z,36.49
2022-08-11T14:23:16.000Z,36.52
2022-08-11T14:26:12.482Z,35.80
2022-08-11T14:28:45.108Z,36.29
2022-08-11T14:31:15.139Z,36.46
2022-08-11T14:33:58.706Z,36.80
2022-08-11T14:36:38.210Z,37.18
2022-08-11T14:39:11.796Z,36.33
2022-08-11T14:42:11.192Z,36.99
2022-08-11T14:45:02.978Z,36.68
2022-08-11T14:47:33.444Z,36.20
2022-08-11T14:50:10.898Z,37.14
2022-08-11T14:52:46.866Z,37.25
2022-08-11T14:55:35.997Z,37.29
2022-08-11T14:58:10.460Z,37.66
2022-08-11T15:00:39.161Z,37.50
2022-08-11T15:03:12.996Z,36.14
2022-08-11T15:06:01.488Z,37.35
2022-08-11T15:08:56.596Z,36.81
2022-08-11T15:12:03.841Z,37.59
2022-08-11T15:14:56.058Z,37.61
2022-08-11T15:17:42.889Z,37.63
2022-08-11T15:20:32.720Z,37.81
2022-08-11T15:23:19.801Z,37.10
2022-08-11T15:25:55.059Z,37.41
2022-08-11T15:28:41.747Z,37.82
2022-08-11T15:31:27.215Z,38.33
2022-08-11T15:34:18.031Z,37.76
2022-08-11T15:37:16.515Z,38.43
2022-08-11T15:40:31.896Z,37.92
2022-08-11T15:43:34.411Z,38.07
2022-08-11T15:46:05.453Z,38.43
2022-08-11T15:49:07.035Z,38.48
2022-08-11T15:51:38.171Z,38.65
2022-08-11T15:54:09.644Z,38.73
2022-08-11T15:56:42.516Z,38.68
2022-08-11T15:59:42.253Z,38.98
2022-08-11T16:02:38.363Z,38.89
2022-08-11T16:05:10.221Z,38.92
2022-08-11T16:07:40.835Z,38.57
2022-08-11T16:10:18.780Z,38.77
2022-08-11T16:13:05.951Z,38.11
2022-08-11T16:15:52.075Z,38.86
2022-08-11T16:18:22.210Z,38.79
2022-08-11T16:20:59.122Z,39.02
2022-08-11T16:23:28.498Z,39.21
2022-08-11T16:26:30.333Z,39.34
2022-08-11T16:28:46.883Z,39.37
2022-08-11T16:31:15.508Z,39.17
2022-08-11T16:33:51.228Z,39.13
2022-08-11T16:36:38.072Z,38.93
2022-08-11T16:39:06.987Z,39.02
2022-08-11T16:41:54.575Z,39.15
2022-08-11T16:44:42.110Z,39.56
2022-08-11T16:47:14.188Z,40.05
2022-08-11T16:49:52.218Z,39.84
2022-08-11T16:52:24.165Z,40.03
2022-08-11T16:54:52.720Z,39.99
2022-08-11T16:57:42.084Z,40.07
2022-08-11T17:00:14.953Z,39.77
2022-08-11T17:03:05.080Z,39.90
2022-08-11T17:05:53.936Z,40.18
2022-08-11T17:08:54.227Z,40.19
2022-08-11T17:11:45.657Z,40.11
2022-08-11T17:14:17.776Z,39.92
2022-08-11T17:17:06.343Z,39.96
2022-08-11T17:20:40.215Z,39.67
2022-08-11T17:22:38.487Z,39.18
2022-08-11T17:25:07.151Z,39.21
2022-08-11T17:27:35.827Z,39.52
2022-08-11T17:30:06.808Z,39.43
2022-08-11T17:33:00.790Z,38.49
2022-08-11T17:35:32.213Z,36.88
2022-08-11T17:38:06.202Z,37.28
2022-08-11T17:40:38.947Z,36.58
2022-08-11T17:43:26.576Z,35.86
2022-08-11T17:46:14.167Z,36.35
2022-08-11T17:48:47.316Z,35.35
2022-08-11T17:51:34.155Z,34.85
2022-08-11T17:54:24.297Z,34.09
2022-08-11T17:57:20.302Z,33.85
2022-08-11T17:59:57.058Z,33.58
2022-08-11T18:02:45.457Z,33.70
2022-08-11T18:05:16.025Z,32.69
2022-08-11T18:08:02.726Z,33.21
2022-08-11T18:10:49.760Z,33.10
2022-08-11T18:13:36.414Z,32.87
2022-08-11T18:16:22.482Z,32.54
2022-08-11T18:19:07.616Z,32.20
2022-08-11T18:22:00.707Z,31.94
2022-08-11T18:25:05.944Z,31.62
2022-08-11T18:27:53.627Z,31.74
2022-08-11T18:30:39.474Z,31.12
2022-08-11T18:33:50.465Z,31.17
2022-08-11T18:36:35.974Z,30.98
2022-08-11T18:39:25.430Z,30.34
2022-08-11T18:42:11.939Z,30.88
2022-08-11T18:45:06.658Z,30.65
2022-08-11T18:47:53.421Z,30.32
2022-08-11T18:50:43.142Z,29.70
2022-08-11T18:53:33.075Z,29.88
2022-08-11T18:56:20.021Z,30.06
2022-08-11T18:59:06.879Z,29.94
2022-08-11T19:01:54.069Z,29.74
2022-08-11T19:04:39.934Z,29.26
2022-08-11T19:07:26.860Z,29.32
2022-08-11T19:10:13.302Z,28.88
2022-08-11T19:13:01.474Z,29.19
2022-08-11T19:15:47.146Z,28.98
2022-08-11T19:18:34.980Z,28.39
2022-08-11T19:21:20.700Z,28.46
2022-08-11T19:24:10.891Z,28.20
2022-08-11T19:26:56.603Z,28.30
2022-08-11T19:30:05.048Z,28.28
2022-08-11T19:32:50.562Z,27.85
2022-08-11T19:35:36.519Z,27.95
2022-08-11T19:38:22.535Z,27.93
2022-08-11T19:41:08.437Z,27.50
2022-08-11T19:43:54.016Z,28.04
2022-08-11T19:46:42.420Z,27.70
2022-08-11T19:49:28.236Z,27.55
2022-08-11T19:52:14.508Z,27.74
2022-08-11T19:55:00.739Z,27.18
2022-08-11T19:57:46.855Z,26.82
2022-08-11T20:00:34.602Z,27.34
2022-08-11T20:03:23.420Z,27.33
2022-08-11T20:06:09.049Z,26.91
2022-08-11T20:08:58.591Z,27.03
2022-08-11T20:11:45.103Z,26.09
2022-08-11T20:14:35.836Z,25.24
2022-08-11T20:17:21.683Z,25.17
2022-08-11T20:20:20.535Z,25.45
2022-08-11T20:23:13.836Z,25.19
2022-08-11T20:26:27.632Z,24.14
2022-08-11T20:29:10.947Z,23.89
2022-08-11T20:31:57.431Z,24.02
2022-08-11T20:34:45.143Z,24.13
2022-08-11T20:37:32.725Z,24.18
2022-08-11T20:40:23.693Z,24.67
2022-08-11T20:44:05.060Z,23.57
2022-08-11T20:46:18.567Z,24.01
2022-08-11T20:49:05.388Z,23.94
2022-08-11T20:51:51.651Z,24.14
2022-08-11T20:54:43.755Z,24.32
2022-08-11T20:57:54.446Z,23.82
2022-08-11T21:00:39.469Z,23.95
2022-08-11T21:03:35.677Z,24.07
2022-08-11T21:10:09.219Z,24.20
2022-08-11T21:12:37.893Z,23.98
2022-08-11T21:15:47.660Z,23.97
2022-08-11T21:18:31.787Z,23.59
2022-08-11T21:21:21.260Z,24.20
2022-08-11T21:24:10.515Z,24.36
2022-08-11T21:27:01.556Z,24.52
2022-08-11T21:29:51.536Z,24.54
2022-08-11T21:32:38.692Z,25.06
2022-08-11T21:35:25.348Z,24.50
2022-08-11T21:38:11.054Z,24.34
2022-08-11T21:40:58.653Z,24.45
2022-08-11T21:43:45.160Z,24.44
2022-08-11T21:46:36.201Z,24.73
2022-08-11T21:49:22.241Z,24.45
2022-08-11T21:52:07.468Z,24.20
2022-08-11T21:54:53.094Z,24.12
2022-08-11T21:57:48.095Z,24.14
2022-08-11T22:00:35.575Z,24.26
2022-08-11T22:03:23.206Z,24.23
2022-08-11T22:06:09.668Z,23.98
2022-08-11T22:08:55.711Z,24.11
2022-08-11T22:11:41.200Z,24.24
2022-08-11T22:14:26.814Z,23.94
2022-08-11T22:17:12.263Z,23.89
2022-08-11T22:20:00.464Z,23.83
2022-08-11T22:22:52.579Z,23.89
2022-08-11T22:25:51.449Z,23.66
2022-08-11T22:28:40.437Z,23.63
2022-08-11T22:31:29.491Z,23.45
2022-08-11T22:34:14.862Z,23.62
2022-08-11T22:37:02.784Z,23.60
2022-08-11T22:40:02.681Z,23.55
2022-08-11T22:42:48.850Z,23.36
2022-08-11T22:45:36.347Z,23.34
2022-08-11T22:48:23.982Z,23.33
2022-08-11T22:51:10.505Z,23.19
2022-08-11T22:53:59.112Z,23.14
2022-08-11T22:56:45.770Z,23.13
2022-08-11T22:59:32.162Z,23.04
2022-08-11T23:02:18.018Z,22.99
2022-08-11T23:05:03.426Z,22.70
2022-08-11T23:07:51.772Z,23.13
2022-08-11T23:10:39.574Z,23.00
2022-08-11T23:13:25.813Z,23.08
2022-08-11T23:16:11.410Z,22.91
2022-08-11T23:18:57.499Z,22.82
2022-08-11T23:21:43.542Z,22.42
2022-08-11T23:24:29.566Z,22.42
2022-08-11T23:27:16.394Z,22.55
2022-08-11T23:30:02.293Z,22.50
2022-08-11T23:32:48.013Z,22.57
2022-08-11T23:35:40.342Z,22.64
2022-08-11T23:38:38.924Z,22.60
2022-08-11T23:41:24.773Z,22.60
2022-08-11T23:44:12.440Z,22.36
2022-08-11T23:46:58.602Z,22.39
2022-08-11T23:49:44.928Z,22.23
2022-08-11T23:52:32.292Z,22.23
2022-08-11T23:55:20.656Z,22.26
2022-08-11T23:58:06.468Z,22.22
